Peter J — WDJ2317 — position and weather

sailwx.info

Track history (hours):
 
Tides and Currents Weather Stations Pressure Air Temp Water Temp Dewpoint Dewpoint Depression Visibility Wind Speed Wind Dir Waves Ship Positions

Peter J

Owner: CUSTOM FUEL SERVICES LLC, NASHVILLE, TN. More information available from US FCC via Universal Licensing System and Coast Guard Vessel Documentation Center.

Last reported at 2018-Jun-19 00:09 UTC. Time now 2018-Jun-25 05:42 UTC.
Position N 30°03' W 090°33'.

Length 17 m; draft 2.7 m.

Type: Towing. MMSI: 366961550.

Date/timePositionNaut miles runAvg speedWind from/ knotsBaromVisibWave heightAir tempDewpointWater temp
2018-Jun-19 00:09N 30°03' W 090°33'6 3.3
2018-Jun-18 22:18N 29°60' W 090°26'1 1.9
2018-Jun-18 22:00N 29°60' W 090°26'3 3.8
2018-Jun-18 21:14N 29°57' W 090°24'1 5.5
2018-Jun-18 21:00N 29°57' W 090°23'  
2018-Jun-15 22:24N 30°03' W 090°32'0 0.0
2018-Jun-14 05:23N 30°03' W 090°32'0 0.0
2018-Jun-14 04:55N 30°03' W 090°32'0 0.0
2018-Jun-14 04:30N 30°03' W 090°32'0 0.0
2018-Jun-14 04:00N 30°03' W 090°32'0 0.0
2018-Jun-14 03:04N 30°03' W 090°32'0 0.1
2018-Jun-14 03:00N 30°03' W 090°32'0 0.0
2018-Jun-14 02:29N 30°03' W 090°32'0 0.4
2018-Jun-14 01:24N 30°03' W 090°32'0 0.0
2018-Jun-13 23:06N 30°03' W 090°32'0 0.0
2018-Jun-13 07:23N 30°03' W 090°32'0 0.0
2018-Jun-13 06:56N 30°03' W 090°32'0 0.0
2018-Jun-13 06:24N 30°03' W 090°32'0 0.0
2018-Jun-13 06:00N 30°03' W 090°32'0 0.1
2018-Jun-13 05:30N 30°03' W 090°32'0 0.0
2018-Jun-13 05:00N 30°03' W 090°32'0 0.0
2018-Jun-13 04:26N 30°03' W 090°32'0 0.0
2018-Jun-13 04:00N 30°03' W 090°32'  
Track history (hours):
 
Tides and Currents Weather Stations Pressure Air Temp Water Temp Dewpoint Dewpoint Depression Visibility Wind Speed Wind Dir Waves Ship Positions

Peter J

Owner: CUSTOM FUEL SERVICES LLC, NASHVILLE, TN. More information available from US FCC via Universal Licensing System and Coast Guard Vessel Documentation Center.

Last reported at 2018-Jun-19 00:09 UTC. Time now 2018-Jun-25 05:42 UTC.
Position N 30°03' W 090°33'.

Length 17 m; draft 2.7 m.

Type: Towing. MMSI: 366961550.

Date/timePositionNaut miles runAvg speedWind from/ knotsBaromVisibWave heightAir tempDewpointWater temp
2018-Jun-19 00:09N 30°03' W 090°33'6 3.3
2018-Jun-18 22:18N 29°60' W 090°26'1 1.9
2018-Jun-18 22:00N 29°60' W 090°26'3 3.8
2018-Jun-18 21:14N 29°57' W 090°24'1 5.5
2018-Jun-18 21:00N 29°57' W 090°23'  
2018-Jun-15 22:24N 30°03' W 090°32'0 0.0
2018-Jun-14 05:23N 30°03' W 090°32'0 0.0
2018-Jun-14 04:55N 30°03' W 090°32'0 0.0
2018-Jun-14 04:30N 30°03' W 090°32'0 0.0
2018-Jun-14 04:00N 30°03' W 090°32'0 0.0
2018-Jun-14 03:04N 30°03' W 090°32'0 0.1
2018-Jun-14 03:00N 30°03' W 090°32'0 0.0
2018-Jun-14 02:29N 30°03' W 090°32'0 0.4
2018-Jun-14 01:24N 30°03' W 090°32'0 0.0
2018-Jun-13 23:06N 30°03' W 090°32'0 0.0
2018-Jun-13 07:23N 30°03' W 090°32'0 0.0
2018-Jun-13 06:56N 30°03' W 090°32'0 0.0
2018-Jun-13 06:24N 30°03' W 090°32'0 0.0
2018-Jun-13 06:00N 30°03' W 090°32'0 0.1
2018-Jun-13 05:30N 30°03' W 090°32'0 0.0
2018-Jun-13 05:00N 30°03' W 090°32'0 0.0
2018-Jun-13 04:26N 30°03' W 090°32'0 0.0
2018-Jun-13 04:00N 30°03' W 090°32'  

Dump ship's entire track history